createdAt,value
2022-12-11T00:00:46.923Z,4.32
2022-12-11T00:03:16.428Z,4.43
2022-12-11T00:05:43.336Z,5.57
2022-12-11T00:08:10.115Z,5.57
2022-12-11T00:10:38.024Z,5.88
2022-12-11T00:13:05.271Z,5.63
2022-12-11T00:15:32.005Z,6.35
2022-12-11T00:17:58.634Z,6.53
2022-12-11T00:20:25.361Z,6.88
2022-12-11T00:22:51.984Z,6.07
2022-12-11T00:25:18.744Z,6.22
2022-12-11T00:27:46.727Z,6.32
2022-12-11T00:30:14.298Z,5.78
2022-12-11T00:32:41.148Z,5.28
2022-12-11T00:35:08.685Z,5.20
2022-12-11T00:37:37.020Z,5.32
2022-12-11T00:40:03.996Z,5.07
2022-12-11T00:42:30.582Z,4.32
2022-12-11T00:44:57.223Z,5.47
2022-12-11T00:47:23.901Z,6.30
2022-12-11T00:49:50.561Z,5.60
2022-12-11T00:52:18.032Z,8.20
2022-12-11T00:54:45.136Z,6.60
2022-12-11T00:57:11.785Z,5.72
2022-12-11T00:59:38.607Z,5.78
2022-12-11T01:02:05.211Z,5.13
2022-12-11T01:04:31.898Z,5.43
2022-12-11T01:06:58.561Z,5.15
2022-12-11T01:09:48.663Z,5.03
2022-12-11T01:12:15.291Z,9.95
2022-12-11T01:14:42.011Z,6.82
2022-12-11T01:17:08.649Z,5.72
2022-12-11T01:19:35.221Z,5.55
2022-12-11T01:22:01.844Z,5.78
2022-12-11T01:24:28.559Z,4.90
2022-12-11T01:26:55.176Z,4.63
2022-12-11T01:29:21.795Z,4.90
2022-12-11T01:31:48.480Z,8.95
2022-12-11T01:34:15.053Z,11.40
2022-12-11T01:36:41.706Z,5.40
2022-12-11T01:39:08.406Z,3.90
2022-12-11T01:41:35.040Z,3.85
2022-12-11T01:44:08.591Z,4.05
2022-12-11T01:46:36.454Z,4.30
2022-12-11T01:49:05.933Z,7.35
2022-12-11T01:51:33.571Z,6.75
2022-12-11T01:54:02.294Z,5.32
2022-12-11T01:56:29.661Z,2.78
2022-12-11T01:58:57.657Z,2.78
2022-12-11T02:02:22.850Z,1.30
2022-12-11T02:04:49.602Z,0.70
2022-12-11T02:07:16.358Z,0.60
2022-12-11T02:09:44.455Z,0.57
2022-12-11T02:12:29.166Z,0.60
2022-12-11T02:15:17.465Z,0.28
2022-12-11T02:18:15.356Z,0.60
2022-12-11T02:21:01.131Z,0.85
2022-12-11T02:23:32.515Z,0.30
2022-12-11T02:26:21.181Z,0.40
2022-12-11T02:28:58.534Z,0.43
2022-12-11T02:31:55.962Z,0.20
2022-12-11T02:34:42.163Z,0.88
2022-12-11T02:37:12.509Z,0.30
2022-12-11T02:39:39.905Z,0.30
2022-12-11T02:42:06.497Z,0.50
2022-12-11T02:44:33.738Z,0.60
2022-12-11T02:47:00.453Z,0.38
2022-12-11T02:49:27.165Z,0.32
2022-12-11T02:51:53.739Z,0.90
2022-12-11T02:54:22.775Z,8.02
2022-12-11T02:57:06.615Z,0.88
2022-12-11T02:59:38.217Z,0.32
2022-12-11T03:02:04.976Z,0.40
2022-12-11T03:04:31.731Z,0.30
2022-12-11T03:07:00.025Z,0.25
2022-12-11T03:09:27.870Z,0.20
2022-12-11T03:11:54.472Z,0.38
2022-12-11T03:14:21.097Z,0.55
2022-12-11T03:17:14.434Z,0.60
2022-12-11T03:20:06.885Z,0.32
2022-12-11T03:22:39.274Z,0.22
2022-12-11T03:25:26.047Z,0.30
2022-12-11T03:28:11.464Z,0.50
2022-12-11T03:30:38.156Z,0.43
2022-12-11T03:33:06.944Z,0.50
2022-12-11T03:35:36.089Z,0.70
2022-12-11T03:38:05.472Z,0.80
2022-12-11T03:40:33.285Z,0.40
2022-12-11T03:42:59.913Z,0.55
2022-12-11T03:45:26.521Z,0.47
2022-12-11T03:47:53.231Z,0.60
2022-12-11T03:50:20.032Z,0.80
2022-12-11T03:52:46.746Z,0.68
2022-12-11T03:55:14.256Z,0.70
2022-12-11T03:57:40.949Z,0.80
2022-12-11T04:00:14.613Z,0.70
2022-12-11T04:02:41.552Z,0.73
2022-12-11T04:05:08.849Z,0.57
2022-12-11T04:07:35.761Z,0.80
2022-12-11T04:10:02.450Z,0.77
2022-12-11T04:12:29.122Z,1.05
2022-12-11T04:15:01.914Z,1.42
2022-12-11T04:17:50.889Z,0.70
2022-12-11T04:20:36.320Z,1.05
2022-12-11T04:23:32.349Z,0.65
2022-12-11T04:26:14.825Z,2.33
2022-12-11T04:28:42.216Z,1.65
2022-12-11T04:31:16.733Z,1.73
2022-12-11T04:33:43.449Z,1.55
2022-12-11T04:36:10.349Z,1.70
2022-12-11T04:38:37.131Z,2.00
2022-12-11T04:41:10.425Z,1.90
2022-12-11T04:43:37.133Z,2.10
2022-12-11T04:46:29.916Z,2.20
2022-12-11T04:48:57.914Z,2.17
2022-12-11T04:51:24.919Z,1.70
2022-12-11T04:53:51.595Z,1.00
2022-12-11T04:56:18.242Z,1.58
2022-12-11T04:58:45.046Z,0.70
2022-12-11T05:01:19.867Z,1.60
2022-12-11T05:03:46.899Z,0.90
2022-12-11T05:06:13.732Z,0.60
2022-12-11T05:08:41.233Z,1.30
2022-12-11T05:11:10.152Z,2.67
2022-12-11T05:13:36.733Z,3.58
2022-12-11T05:16:05.021Z,2.40
2022-12-11T05:18:31.700Z,0.60
2022-12-11T05:20:59.764Z,3.25
2022-12-11T05:23:26.454Z,2.83
2022-12-11T05:25:57.542Z,2.65
2022-12-11T05:28:25.001Z,2.30
2022-12-11T05:31:09.111Z,4.60
2022-12-11T05:33:35.803Z,2.38
2022-12-11T05:36:02.408Z,5.60
2022-12-11T05:38:29.041Z,4.05
2022-12-11T05:40:59.566Z,7.75
2022-12-11T05:43:27.200Z,5.55
2022-12-11T05:45:54.226Z,2.63
2022-12-11T05:48:21.110Z,4.90
2022-12-11T05:51:00.622Z,3.38
2022-12-11T05:53:27.518Z,1.80
2022-12-11T05:55:54.100Z,4.80
2022-12-11T05:58:20.818Z,3.78
2022-12-11T06:00:47.953Z,4.30
2022-12-11T06:03:14.661Z,4.47
2022-12-11T06:05:41.781Z,1.00
2022-12-11T06:08:08.564Z,1.80
2022-12-11T06:10:35.304Z,4.88
2022-12-11T06:13:01.951Z,3.20
2022-12-11T06:15:28.589Z,1.55
2022-12-11T06:17:55.168Z,1.70
2022-12-11T06:20:21.842Z,1.27
2022-12-11T06:22:48.514Z,0.95
2022-12-11T06:25:15.101Z,1.33
2022-12-11T06:27:41.759Z,1.15
2022-12-11T06:30:09.165Z,0.95
2022-12-11T06:32:35.818Z,1.20
2022-12-11T06:35:02.431Z,0.90
2022-12-11T06:37:29.166Z,1.67
2022-12-11T06:39:55.727Z,1.63
2022-12-11T06:42:22.381Z,1.30
2022-12-11T06:44:49.138Z,0.90
2022-12-11T06:47:15.735Z,1.60
2022-12-11T06:49:42.460Z,1.17
2022-12-11T06:52:12.455Z,2.40
2022-12-11T06:54:41.708Z,4.13
2022-12-11T06:57:09.394Z,4.75
2022-12-11T06:59:36.084Z,2.30
2022-12-11T07:02:03.027Z,1.20
2022-12-11T07:04:30.664Z,1.02
2022-12-11T07:06:57.538Z,1.80
2022-12-11T07:09:24.663Z,5.03
2022-12-11T07:11:51.786Z,2.33
2022-12-11T07:14:18.501Z,2.47
2022-12-11T07:16:45.395Z,1.48
2022-12-11T07:19:12.110Z,1.35
2022-12-11T07:21:38.761Z,1.60
2022-12-11T07:24:05.784Z,1.00
2022-12-11T07:26:32.636Z,0.90
2022-12-11T07:28:59.538Z,0.45
2022-12-11T07:31:27.193Z,1.13
2022-12-11T07:33:57.805Z,1.20
2022-12-11T07:36:24.870Z,10.45
2022-12-11T07:38:51.728Z,1.75
2022-12-11T07:41:18.480Z,1.40
2022-12-11T07:43:45.565Z,2.45
2022-12-11T07:46:16.880Z,1.35
2022-12-11T07:48:44.927Z,2.72
2022-12-11T07:51:16.485Z,2.25
2022-12-11T07:53:47.241Z,1.00
2022-12-11T07:56:14.265Z,2.45
2022-12-11T07:58:40.895Z,4.13
2022-12-11T08:01:18.412Z,4.75
2022-12-11T08:03:45.147Z,3.83
2022-12-11T08:06:11.818Z,15.40
2022-12-11T08:08:38.905Z,27.95
2022-12-11T08:11:06.605Z,17.73
2022-12-11T08:13:33.454Z,10.52
2022-12-11T08:16:02.849Z,9.63
2022-12-11T08:18:30.455Z,6.45
2022-12-11T08:20:57.111Z,3.03
2022-12-11T08:23:23.753Z,3.00
2022-12-11T08:25:50.403Z,2.65
2022-12-11T08:28:17.041Z,2.25
2022-12-11T08:30:43.690Z,2.03
2022-12-11T08:33:10.285Z,0.88
2022-12-11T08:35:39.800Z,0.60
2022-12-11T08:38:06.446Z,1.00
2022-12-11T08:40:33.069Z,0.57
2022-12-11T08:42:59.750Z,2.70
2022-12-11T08:45:27.170Z,1.90
2022-12-11T08:47:54.083Z,2.35
2022-12-11T08:50:20.767Z,10.75
2022-12-11T08:52:47.491Z,29.17
2022-12-11T08:55:14.302Z,19.20
2022-12-11T08:57:41.131Z,2.78
2022-12-11T09:00:09.270Z,1.20
2022-12-11T09:02:35.994Z,1.40
2022-12-11T09:05:02.787Z,0.73
2022-12-11T09:07:29.533Z,6.05
2022-12-11T09:09:56.105Z,1.60
2022-12-11T09:12:23.112Z,7.38
2022-12-11T09:14:49.841Z,4.05
2022-12-11T09:17:16.565Z,2.95
2022-12-11T09:19:43.165Z,3.00
2022-12-11T09:22:11.269Z,3.08
2022-12-11T09:24:38.396Z,4.10
2022-12-11T09:27:05.500Z,8.65
2022-12-11T09:29:32.609Z,3.55
2022-12-11T09:31:59.178Z,1.77
2022-12-11T09:34:29.240Z,2.67
2022-12-11T09:36:56.378Z,3.33
2022-12-11T09:39:23.047Z,4.18
2022-12-11T09:41:58.181Z,3.00
2022-12-11T09:44:50.575Z,3.42
2022-12-11T09:47:36.181Z,4.25
2022-12-11T09:50:04.904Z,4.22
2022-12-11T09:52:38.535Z,8.57
2022-12-11T09:55:26.097Z,14.13
2022-12-11T09:58:11.468Z,50.90
2022-12-11T10:00:46.701Z,80.03
2022-12-11T10:03:31.914Z,17.27
2022-12-11T10:06:26.264Z,4.03
2022-12-11T10:09:14.706Z,6.50
2022-12-11T10:11:57.118Z,23.98
2022-12-11T10:14:52.169Z,14.93
2022-12-11T10:17:21.484Z,13.25
2022-12-11T10:19:48.179Z,14.48
2022-12-11T10:22:24.697Z,10.93
2022-12-11T10:25:11.612Z,2.55
2022-12-11T10:27:39.135Z,1.90
2022-12-11T10:30:15.056Z,1.90
2022-12-11T10:32:59.701Z,1.75
2022-12-11T10:35:39.770Z,2.22
2022-12-11T10:38:29.516Z,14.68
2022-12-11T10:40:58.596Z,15.75
2022-12-11T10:43:36.184Z,15.63
2022-12-11T10:46:03.431Z,17.40
2022-12-11T10:48:30.106Z,17.70
2022-12-11T10:51:05.516Z,20.15
2022-12-11T10:53:32.641Z,17.42
2022-12-11T10:55:59.842Z,30.83
2022-12-11T10:58:28.647Z,27.50
2022-12-11T11:01:14.490Z,10.60
2022-12-11T11:04:06.748Z,49.65
2022-12-11T11:06:33.496Z,7.32
2022-12-11T11:09:01.282Z,9.52
2022-12-11T11:11:38.240Z,10.25
2022-12-11T11:14:31.287Z,12.75
2022-12-11T11:16:58.036Z,18.20
2022-12-11T11:19:24.656Z,18.42
2022-12-11T11:21:56.660Z,8.02
2022-12-11T11:24:45.390Z,14.07
2022-12-11T11:27:20.279Z,29.83
2022-12-11T11:29:52.832Z,5.63
2022-12-11T11:32:22.673Z,6.50
2022-12-11T11:34:49.425Z,7.82
2022-12-11T11:37:36.223Z,12.45
2022-12-11T11:40:08.448Z,21.10
2022-12-11T11:42:44.186Z,10.65
2022-12-11T11:45:16.773Z,19.25
2022-12-11T11:47:50.992Z,23.50
2022-12-11T11:53:02.860Z,12.73
2022-12-11T11:56:23.289Z,43.78
2022-12-11T11:59:11.439Z,57.53
2022-12-11T12:01:38.039Z,12.63
2022-12-11T12:04:04.921Z,12.20
2022-12-11T12:06:50.856Z,13.73
2022-12-11T12:09:20.781Z,10.68
2022-12-11T12:11:56.588Z,8.80
2022-12-11T12:14:51.994Z,27.70
2022-12-11T12:17:56.059Z,10.25
2022-12-11T12:20:29.065Z,10.23
2022-12-11T12:23:20.606Z,10.32
2022-12-11T12:26:01.846Z,10.38
2022-12-11T12:28:41.468Z,9.93
2022-12-11T12:31:20.751Z,9.85
2022-12-11T12:34:18.377Z,9.32
2022-12-11T12:37:00.939Z,17.92
2022-12-11T12:39:33.581Z,19.83
2022-12-11T12:42:16.284Z,14.50
2022-12-11T12:45:03.939Z,11.68
2022-12-11T12:47:32.550Z,14.52
2022-12-11T12:49:59.168Z,10.80
2022-12-11T12:52:30.811Z,7.90
2022-12-11T12:55:16.503Z,9.82
2022-12-11T12:58:00.337Z,4.60
2022-12-11T13:00:27.097Z,4.28
2022-12-11T13:02:56.080Z,5.68
2022-12-11T13:05:27.193Z,3.95
2022-12-11T13:07:58.352Z,5.90
2022-12-11T13:10:33.364Z,4.72
2022-12-11T13:13:00.805Z,6.75
2022-12-11T13:15:34.949Z,3.60
2022-12-11T13:20:30.901Z,5.25
2022-12-11T13:23:06.832Z,2.58
2022-12-11T13:25:52.452Z,6.47
2022-12-11T13:28:47.969Z,5.25
2022-12-11T13:31:14.595Z,4.20
2022-12-11T13:33:54.925Z,3.28
2022-12-11T13:36:24.603Z,3.17
2022-12-11T13:39:08.901Z,2.88
2022-12-11T13:41:36.457Z,2.33
2022-12-11T13:44:03.242Z,0.95
2022-12-11T13:46:31.920Z,3.97
2022-12-11T13:49:01.110Z,4.82
2022-12-11T13:51:30.255Z,3.67
2022-12-11T13:54:17.799Z,3.58
2022-12-11T13:57:00.696Z,24.42
2022-12-11T13:59:32.785Z,18.38
2022-12-11T14:02:01.609Z,25.15
2022-12-11T14:04:28.317Z,23.63
2022-12-11T14:06:56.072Z,4.25
2022-12-11T14:09:24.044Z,16.50
2022-12-11T14:11:56.503Z,6.00
2022-12-11T14:14:40.719Z,2.92
2022-12-11T14:17:12.614Z,48.22
2022-12-11T14:19:39.273Z,14.43
2022-12-11T14:22:08.025Z,4.68
2022-12-11T14:24:34.712Z,1.75
2022-12-11T14:27:01.419Z,3.58
2022-12-11T14:29:30.424Z,5.63
2022-12-11T14:32:00.088Z,14.13
2022-12-11T14:34:38.549Z,13.70
2022-12-11T14:37:06.291Z,17.08
2022-12-11T14:39:54.470Z,20.17
2022-12-11T14:42:23.405Z,68.25
2022-12-11T14:44:50.976Z,7.05
2022-12-11T14:47:23.041Z,14.43
2022-12-11T14:50:15.519Z,2.42
2022-12-11T14:52:43.735Z,1.00
2022-12-11T14:55:18.267Z,1.10
2022-12-11T14:57:45.955Z,7.90
2022-12-11T15:00:38.169Z,13.68
2022-12-11T15:03:23.290Z,18.27
2022-12-11T15:05:55.017Z,16.83
2022-12-11T15:08:32.514Z,23.20
2022-12-11T15:11:12.245Z,24.20
2022-12-11T15:13:55.060Z,9.45
2022-12-11T15:16:22.403Z,6.47
2022-12-11T15:18:53.487Z,24.63
2022-12-11T15:21:20.314Z,12.80
2022-12-11T15:23:54.812Z,24.67
2022-12-11T15:26:21.763Z,8.93
2022-12-11T15:28:48.536Z,12.93
2022-12-11T15:31:27.599Z,12.63
2022-12-11T15:33:54.236Z,16.98
2022-12-11T15:36:33.208Z,9.65
2022-12-11T15:38:59.868Z,15.63
2022-12-11T15:41:26.756Z,11.07
2022-12-11T16:45:54.514Z,4.35
2022-12-11T16:48:21.454Z,3.33
2022-12-11T16:50:48.043Z,0.77
2022-12-11T16:53:15.370Z,2.28
2022-12-11T16:55:42.509Z,16.42
2022-12-11T16:58:09.549Z,13.10
2022-12-11T17:00:36.113Z,2.08
2022-12-11T17:03:02.815Z,6.70
2022-12-11T17:05:29.371Z,1.10
2022-12-11T17:07:56.083Z,32.15
2022-12-11T17:10:22.901Z,1.63
2022-12-11T17:12:49.522Z,0.50
2022-12-11T17:15:16.144Z,0.60
2022-12-11T17:17:45.869Z,0.95
2022-12-11T17:20:12.629Z,3.17
2022-12-11T17:22:39.298Z,1.85
2022-12-11T17:25:06.182Z,3.53
2022-12-11T17:27:32.749Z,10.80
2022-12-11T17:29:59.435Z,74.03
2022-12-11T17:32:26.202Z,33.50
2022-12-11T17:34:52.820Z,60.63
2022-12-11T17:37:20.180Z,70.68
2022-12-11T17:53:30.388Z,62.88
2022-12-11T17:56:00.065Z,38.28
2022-12-11T17:58:27.010Z,8.15
2022-12-11T18:00:54.273Z,1.52
2022-12-11T18:03:21.235Z,15.77
2022-12-11T18:05:52.104Z,1.48
2022-12-11T18:08:21.637Z,0.60
2022-12-11T18:10:48.356Z,1.48
2022-12-11T18:13:14.980Z,1.38
2022-12-11T18:15:42.050Z,3.30
2022-12-11T18:18:08.917Z,1.52
2022-12-11T18:20:35.706Z,1.90
2022-12-11T18:23:02.519Z,5.78
2022-12-11T18:25:29.236Z,11.30
2022-12-11T18:27:56.040Z,2.20
2022-12-11T18:30:23.638Z,0.85
2022-12-11T18:32:50.789Z,0.75
2022-12-11T18:35:17.545Z,0.80
2022-12-11T18:37:44.320Z,4.15
2022-12-11T18:40:11.986Z,4.50
2022-12-11T18:42:38.665Z,8.85
2022-12-11T18:45:05.910Z,2.22
2022-12-11T18:47:32.539Z,11.30
2022-12-11T18:50:03.922Z,19.48
2022-12-11T18:52:33.942Z,7.82
2022-12-11T18:55:00.569Z,0.70
2022-12-11T18:57:27.214Z,0.90
2022-12-11T18:59:54.107Z,0.60
2022-12-11T19:02:21.076Z,0.93
2022-12-11T19:04:47.742Z,0.70
2022-12-11T19:07:14.461Z,0.55
2022-12-11T19:09:46.263Z,1.00
2022-12-11T19:12:14.754Z,0.70
2022-12-11T19:14:41.551Z,0.90
2022-12-11T19:17:08.155Z,1.50
2022-12-11T19:19:36.034Z,1.10
2022-12-11T19:22:02.764Z,3.28
2022-12-11T19:24:29.409Z,2.13
2022-12-11T19:26:56.019Z,19.27
2022-12-11T19:29:27.889Z,1.13
2022-12-11T19:31:55.642Z,1.00
2022-12-11T19:34:22.687Z,1.33
2022-12-11T19:36:49.480Z,1.98
2022-12-11T19:39:16.087Z,1.35
2022-12-11T19:41:42.886Z,1.08
2022-12-11T19:44:09.579Z,0.95
2022-12-11T19:46:36.326Z,1.48
2022-12-11T19:49:03.083Z,1.30
2022-12-11T19:51:38.656Z,1.00
2022-12-11T19:54:09.355Z,1.67
2022-12-11T19:56:36.166Z,1.20
2022-12-11T19:59:04.214Z,3.10
2022-12-11T20:01:32.122Z,6.35
2022-12-11T20:04:00.344Z,3.10
2022-12-11T20:06:31.374Z,1.90
2022-12-11T20:08:58.323Z,1.77
2022-12-11T20:11:25.005Z,1.13
2022-12-11T20:13:52.004Z,1.40
2022-12-11T20:16:28.862Z,1.40
2022-12-11T20:19:05.755Z,2.00
2022-12-11T20:21:32.521Z,1.67
2022-12-11T20:23:59.542Z,1.40
2022-12-11T20:26:26.335Z,1.30
2022-12-11T20:28:53.304Z,1.13
2022-12-11T20:31:23.310Z,1.20
2022-12-11T20:33:50.367Z,1.23
2022-12-11T20:36:17.643Z,1.13
2022-12-11T20:38:44.493Z,1.58
2022-12-11T20:41:15.808Z,1.20
2022-12-11T20:43:42.501Z,1.30
2022-12-11T20:46:10.025Z,2.17
2022-12-11T20:48:36.998Z,3.60
2022-12-11T20:51:04.068Z,1.20
2022-12-11T20:53:30.835Z,1.10
2022-12-11T20:55:57.491Z,1.25
2022-12-11T20:58:24.288Z,1.20
2022-12-11T21:00:51.058Z,1.08
2022-12-11T21:03:17.920Z,2.38
2022-12-11T21:05:45.200Z,5.90
2022-12-11T21:08:12.107Z,1.92
2022-12-11T21:10:42.677Z,1.95
2022-12-11T21:13:09.304Z,2.30
2022-12-11T21:15:37.180Z,5.70
2022-12-11T21:18:03.980Z,5.28
2022-12-11T21:20:30.557Z,2.88
2022-12-11T21:22:57.638Z,2.83
2022-12-11T21:25:25.020Z,3.10
2022-12-11T21:27:51.641Z,5.25
2022-12-11T21:30:18.453Z,2.28
2022-12-11T21:32:45.087Z,1.73
2022-12-11T21:35:12.054Z,1.95
2022-12-11T21:37:41.683Z,2.50
2022-12-11T21:40:09.233Z,2.42
2022-12-11T21:42:35.830Z,1.77
2022-12-11T21:47:50.209Z,1.20
2022-12-11T21:50:17.099Z,1.40
2022-12-11T21:52:44.118Z,1.20
2022-12-11T21:55:11.666Z,1.55
2022-12-11T21:57:38.594Z,3.70
2022-12-11T22:00:05.933Z,7.93
2022-12-11T22:02:37.480Z,6.15
2022-12-11T22:05:07.651Z,5.07
2022-12-11T22:07:34.256Z,2.67
2022-12-11T22:10:00.933Z,15.98
2022-12-11T22:12:28.035Z,3.38
2022-12-11T22:14:54.655Z,5.40
2022-12-11T22:17:21.498Z,3.70
2022-12-11T22:19:48.265Z,10.18
2022-12-11T22:22:14.954Z,8.20
2022-12-11T22:24:41.686Z,7.25
2022-12-11T22:27:08.346Z,7.60
2022-12-11T22:29:35.580Z,7.57
2022-12-11T22:32:02.237Z,8.15
2022-12-11T22:34:28.994Z,9.15
2022-12-11T22:36:56.298Z,17.92
2022-12-11T22:39:23.192Z,5.03
2022-12-11T22:41:49.868Z,12.35
2022-12-11T22:44:18.428Z,6.07
2022-12-11T22:46:49.721Z,4.72
2022-12-11T22:49:17.631Z,3.92
2022-12-11T22:51:44.246Z,5.05
2022-12-11T22:54:11.414Z,5.63
2022-12-11T22:56:38.330Z,4.00
2022-12-11T22:59:04.957Z,5.03
2022-12-11T23:01:31.891Z,4.93
2022-12-11T23:03:58.627Z,4.72
2022-12-11T23:06:25.390Z,6.05
2022-12-11T23:08:53.014Z,4.10
2022-12-11T23:11:24.860Z,4.07
2022-12-11T23:13:51.985Z,4.72
2022-12-11T23:16:18.683Z,3.13
2022-12-11T23:18:45.441Z,3.33
2022-12-11T23:21:12.088Z,3.00
2022-12-11T23:23:38.795Z,3.05
2022-12-11T23:26:05.913Z,2.95
2022-12-11T23:28:32.494Z,3.10
2022-12-11T23:30:59.203Z,2.75
2022-12-11T23:33:26.048Z,2.60
2022-12-11T23:35:52.774Z,2.25
2022-12-11T23:38:19.448Z,2.20
2022-12-11T23:40:46.106Z,2.47
2022-12-11T23:43:12.702Z,2.13
2022-12-11T23:45:39.376Z,2.20
2022-12-11T23:48:06.073Z,2.58
2022-12-11T23:50:33.047Z,2.55
2022-12-11T23:52:59.656Z,3.38
2022-12-11T23:55:27.417Z,2.92
2022-12-11T23:57:54.135Z,2.58
